Swaffham, United Kingdom
Current Conditions -  °F | °C
As of 12:50 AM on Sunday 21 Dec 2014 (Local Time) from EGYM Reporting Station
Overcast Overcast  
Wind Chill: 36°   Ceiling: 3900
Heat Index: 43°   Visibility: 6mi
Dew Point: 39°   Wind: 13mph
Humidity: 87%   Direction: 240°WSW
Pressure: 30.36"   Gusts: NA
Location:  52.65°N, 0.69°E
Report Text: EGYM 210050Z AUTO 24011KT 9999 OVC039/// 06/04 Q1028
Loading
Personal Weather Stations






























Interactive Weather Map New forecast layout! Learn more

10-Day Weather Forecast

Advertisements
Track Severe Weather on mobile